sensor_id;sensor_type;location;lat;lon;timestamp;temperature;humidity
56424;DHT22;42329;43.516;3.684;2022-07-29T00:01:22;23.00;74.20
56424;DHT22;42329;43.516;3.684;2022-07-29T00:03:49;23.00;74.50
56424;DHT22;42329;43.516;3.684;2022-07-29T00:06:16;22.90;75.10
56424;DHT22;42329;43.516;3.684;2022-07-29T00:08:44;22.80;75.90
56424;DHT22;42329;43.516;3.684;2022-07-29T00:11:11;22.60;76.30
56424;DHT22;42329;43.516;3.684;2022-07-29T00:13:38;22.50;76.30
56424;DHT22;42329;43.516;3.684;2022-07-29T00:16:07;22.40;76.70
56424;DHT22;42329;43.516;3.684;2022-07-29T00:18:34;22.40;77.00
56424;DHT22;42329;43.516;3.684;2022-07-29T00:21:02;22.30;77.20
56424;DHT22;42329;43.516;3.684;2022-07-29T00:23:29;22.20;77.50
56424;DHT22;42329;43.516;3.684;2022-07-29T00:25:56;22.20;77.50
56424;DHT22;42329;43.516;3.684;2022-07-29T00:28:23;22.30;77.10
56424;DHT22;42329;43.516;3.684;2022-07-29T00:30:51;22.30;77.00
56424;DHT22;42329;43.516;3.684;2022-07-29T00:33:19;22.30;76.70
56424;DHT22;42329;43.516;3.684;2022-07-29T00:35:47;22.30;76.90
56424;DHT22;42329;43.516;3.684;2022-07-29T00:38:15;22.20;76.90
56424;DHT22;42329;43.516;3.684;2022-07-29T00:40:43;22.10;76.80
56424;DHT22;42329;43.516;3.684;2022-07-29T00:43:11;22.10;77.10
56424;DHT22;42329;43.516;3.684;2022-07-29T00:45:39;22.10;77.10
56424;DHT22;42329;43.516;3.684;2022-07-29T00:48:07;22.10;77.40
56424;DHT22;42329;43.516;3.684;2022-07-29T00:50:36;22.00;77.30
56424;DHT22;42329;43.516;3.684;2022-07-29T00:53:05;22.10;77.60
56424;DHT22;42329;43.516;3.684;2022-07-29T00:55:32;21.90;78.60
56424;DHT22;42329;43.516;3.684;2022-07-29T00:58:00;21.70;78.90
56424;DHT22;42329;43.516;3.684;2022-07-29T01:00:28;21.60;79.30
56424;DHT22;42329;43.516;3.684;2022-07-29T01:02:56;21.50;79.70
56424;DHT22;42329;43.516;3.684;2022-07-29T01:05:25;21.30;79.90
56424;DHT22;42329;43.516;3.684;2022-07-29T01:07:57;21.30;79.90
56424;DHT22;42329;43.516;3.684;2022-07-29T01:10:24;21.30;80.00
56424;DHT22;42329;43.516;3.684;2022-07-29T01:12:55;21.30;80.00
56424;DHT22;42329;43.516;3.684;2022-07-29T01:15:24;21.20;80.40
56424;DHT22;42329;43.516;3.684;2022-07-29T01:17:58;21.20;80.50
56424;DHT22;42329;43.516;3.684;2022-07-29T01:20:34;21.20;80.50
56424;DHT22;42329;43.516;3.684;2022-07-29T01:23:38;21.20;80.80
56424;DHT22;42329;43.516;3.684;2022-07-29T01:29:12;21.10;80.80
56424;DHT22;42329;43.516;3.684;2022-07-29T01:31:48;21.10;81.10
56424;DHT22;42329;43.516;3.684;2022-07-29T01:34:21;21.10;81.40
56424;DHT22;42329;43.516;3.684;2022-07-29T01:36:53;21.10;81.50
56424;DHT22;42329;43.516;3.684;2022-07-29T01:39:27;21.10;81.00
56424;DHT22;42329;43.516;3.684;2022-07-29T01:41:59;21.00;81.00
56424;DHT22;42329;43.516;3.684;2022-07-29T01:44:33;21.00;81.40
56424;DHT22;42329;43.516;3.684;2022-07-29T01:47:05;21.00;81.80
56424;DHT22;42329;43.516;3.684;2022-07-29T01:49:40;20.90;81.40
56424;DHT22;42329;43.516;3.684;2022-07-29T01:52:13;20.90;81.70
56424;DHT22;42329;43.516;3.684;2022-07-29T01:54:45;20.80;81.80
56424;DHT22;42329;43.516;3.684;2022-07-29T01:57:15;20.80;81.40
56424;DHT22;42329;43.516;3.684;2022-07-29T01:59:46;20.90;80.60
56424;DHT22;42329;43.516;3.684;2022-07-29T02:02:15;20.90;80.80
56424;DHT22;42329;43.516;3.684;2022-07-29T02:04:44;20.90;81.30
56424;DHT22;42329;43.516;3.684;2022-07-29T02:07:17;20.90;80.90
56424;DHT22;42329;43.516;3.684;2022-07-29T02:09:46;20.90;81.40
56424;DHT22;42329;43.516;3.684;2022-07-29T02:12:14;20.90;81.80
56424;DHT22;42329;43.516;3.684;2022-07-29T02:14:47;20.80;82.40
56424;DHT22;42329;43.516;3.684;2022-07-29T02:17:18;20.80;82.80
56424;DHT22;42329;43.516;3.684;2022-07-29T02:19:48;20.70;82.90
56424;DHT22;42329;43.516;3.684;2022-07-29T02:22:17;20.60;83.10
56424;DHT22;42329;43.516;3.684;2022-07-29T02:24:46;20.60;83.50
56424;DHT22;42329;43.516;3.684;2022-07-29T02:27:15;20.50;82.80
56424;DHT22;42329;43.516;3.684;2022-07-29T02:29:45;20.50;82.50
56424;DHT22;42329;43.516;3.684;2022-07-29T02:32:14;20.50;82.60
56424;DHT22;42329;43.516;3.684;2022-07-29T02:34:43;20.60;82.50
56424;DHT22;42329;43.516;3.684;2022-07-29T02:37:11;20.60;82.70
56424;DHT22;42329;43.516;3.684;2022-07-29T02:39:42;20.60;83.10
56424;DHT22;42329;43.516;3.684;2022-07-29T02:42:13;20.50;83.10
56424;DHT22;42329;43.516;3.684;2022-07-29T02:44:42;20.50;83.30
56424;DHT22;42329;43.516;3.684;2022-07-29T02:47:16;20.50;83.50
56424;DHT22;42329;43.516;3.684;2022-07-29T02:49:51;20.50;83.50
56424;DHT22;42329;43.516;3.684;2022-07-29T02:52:24;20.40;82.80
56424;DHT22;42329;43.516;3.684;2022-07-29T02:54:55;20.50;82.30
56424;DHT22;42329;43.516;3.684;2022-07-29T02:57:31;20.60;81.50
56424;DHT22;42329;43.516;3.684;2022-07-29T03:00:04;20.60;80.80
56424;DHT22;42329;43.516;3.684;2022-07-29T03:02:37;20.70;80.40
56424;DHT22;42329;43.516;3.684;2022-07-29T03:05:06;20.70;79.60
56424;DHT22;42329;43.516;3.684;2022-07-29T03:07:36;20.70;80.00
56424;DHT22;42329;43.516;3.684;2022-07-29T03:10:05;20.80;79.10
56424;DHT22;42329;43.516;3.684;2022-07-29T03:12:34;20.80;78.90
56424;DHT22;42329;43.516;3.684;2022-07-29T03:15:03;20.80;78.90
56424;DHT22;42329;43.516;3.684;2022-07-29T03:17:31;20.90;78.70
56424;DHT22;42329;43.516;3.684;2022-07-29T03:20:00;20.90;78.50
56424;DHT22;42329;43.516;3.684;2022-07-29T03:22:28;20.80;78.20
56424;DHT22;42329;43.516;3.684;2022-07-29T03:24:56;20.90;78.10
56424;DHT22;42329;43.516;3.684;2022-07-29T03:27:23;20.90;77.90
56424;DHT22;42329;43.516;3.684;2022-07-29T03:29:50;20.90;78.40
56424;DHT22;42329;43.516;3.684;2022-07-29T03:32:18;20.90;78.70
56424;DHT22;42329;43.516;3.684;2022-07-29T03:34:45;20.90;79.00
56424;DHT22;42329;43.516;3.684;2022-07-29T03:37:14;20.90;78.70
56424;DHT22;42329;43.516;3.684;2022-07-29T03:39:41;20.90;78.40
56424;DHT22;42329;43.516;3.684;2022-07-29T03:42:13;21.00;78.30
56424;DHT22;42329;43.516;3.684;2022-07-29T03:44:44;21.00;79.10
56424;DHT22;42329;43.516;3.684;2022-07-29T03:47:13;21.00;78.80
56424;DHT22;42329;43.516;3.684;2022-07-29T03:49:42;21.00;78.40
56424;DHT22;42329;43.516;3.684;2022-07-29T03:52:12;21.00;78.50
56424;DHT22;42329;43.516;3.684;2022-07-29T03:54:40;21.00;78.60
56424;DHT22;42329;43.516;3.684;2022-07-29T03:57:08;21.00;78.20
56424;DHT22;42329;43.516;3.684;2022-07-29T03:59:38;21.10;79.10
56424;DHT22;42329;43.516;3.684;2022-07-29T04:02:09;21.10;79.00
56424;DHT22;42329;43.516;3.684;2022-07-29T04:04:37;21.10;77.50
56424;DHT22;42329;43.516;3.684;2022-07-29T04:07:05;21.20;76.70
56424;DHT22;42329;43.516;3.684;2022-07-29T04:09:34;21.30;77.50
56424;DHT22;42329;43.516;3.684;2022-07-29T04:12:01;21.30;78.80
56424;DHT22;42329;43.516;3.684;2022-07-29T04:14:28;21.30;78.80
56424;DHT22;42329;43.516;3.684;2022-07-29T04:16:56;21.30;78.30
56424;DHT22;42329;43.516;3.684;2022-07-29T04:19:23;21.30;78.00
56424;DHT22;42329;43.516;3.684;2022-07-29T04:21:50;21.30;78.30
56424;DHT22;42329;43.516;3.684;2022-07-29T04:24:18;21.30;78.50
56424;DHT22;42329;43.516;3.684;2022-07-29T04:26:47;21.30;78.10
56424;DHT22;42329;43.516;3.684;2022-07-29T04:29:14;21.40;77.50
56424;DHT22;42329;43.516;3.684;2022-07-29T04:31:42;21.40;77.80
56424;DHT22;42329;43.516;3.684;2022-07-29T04:34:10;21.40;78.00
56424;DHT22;42329;43.516;3.684;2022-07-29T04:36:37;21.40;77.90
56424;DHT22;42329;43.516;3.684;2022-07-29T04:39:05;21.40;77.50
56424;DHT22;42329;43.516;3.684;2022-07-29T04:41:33;21.40;77.30
56424;DHT22;42329;43.516;3.684;2022-07-29T04:44:02;21.50;77.30
56424;DHT22;42329;43.516;3.684;2022-07-29T04:46:31;21.50;77.10
56424;DHT22;42329;43.516;3.684;2022-07-29T04:48:58;21.50;77.60
56424;DHT22;42329;43.516;3.684;2022-07-29T04:51:25;21.50;77.20
56424;DHT22;42329;43.516;3.684;2022-07-29T04:53:53;21.50;76.80
56424;DHT22;42329;43.516;3.684;2022-07-29T04:56:20;21.50;76.50
56424;DHT22;42329;43.516;3.684;2022-07-29T04:58:47;21.60;76.50
56424;DHT22;42329;43.516;3.684;2022-07-29T05:01:16;21.60;76.50
56424;DHT22;42329;43.516;3.684;2022-07-29T05:03:44;21.60;76.80
56424;DHT22;42329;43.516;3.684;2022-07-29T05:06:12;21.60;76.90
56424;DHT22;42329;43.516;3.684;2022-07-29T05:08:39;21.60;76.90
56424;DHT22;42329;43.516;3.684;2022-07-29T05:11:06;21.60;76.80
56424;DHT22;42329;43.516;3.684;2022-07-29T05:13:34;21.60;76.50
56424;DHT22;42329;43.516;3.684;2022-07-29T05:16:01;21.60;76.90
56424;DHT22;42329;43.516;3.684;2022-07-29T05:18:30;21.60;76.90
56424;DHT22;42329;43.516;3.684;2022-07-29T05:20:57;21.70;77.20
56424;DHT22;42329;43.516;3.684;2022-07-29T05:23:25;21.60;76.80
56424;DHT22;42329;43.516;3.684;2022-07-29T05:25:52;21.60;76.40
56424;DHT22;42329;43.516;3.684;2022-07-29T05:28:19;21.60;77.20
56424;DHT22;42329;43.516;3.684;2022-07-29T05:30:47;21.60;76.70
56424;DHT22;42329;43.516;3.684;2022-07-29T05:33:15;21.70;76.50
56424;DHT22;42329;43.516;3.684;2022-07-29T05:35:43;21.80;76.30
56424;DHT22;42329;43.516;3.684;2022-07-29T05:38:11;21.80;76.30
56424;DHT22;42329;43.516;3.684;2022-07-29T05:40:38;21.80;76.30
56424;DHT22;42329;43.516;3.684;2022-07-29T05:43:05;21.80;76.60
56424;DHT22;42329;43.516;3.684;2022-07-29T05:45:33;21.80;80.20
56424;DHT22;42329;43.516;3.684;2022-07-29T05:48:00;21.80;82.70
56424;DHT22;42329;43.516;3.684;2022-07-29T05:50:27;21.70;82.70
56424;DHT22;42329;43.516;3.684;2022-07-29T05:52:56;21.70;84.00
56424;DHT22;42329;43.516;3.684;2022-07-29T05:55:23;21.60;85.40
56424;DHT22;42329;43.516;3.684;2022-07-29T05:57:52;21.60;85.50
56424;DHT22;42329;43.516;3.684;2022-07-29T06:00:19;21.70;83.00
56424;DHT22;42329;43.516;3.684;2022-07-29T06:02:46;21.70;82.50
56424;DHT22;42329;43.516;3.684;2022-07-29T06:05:14;21.70;82.70
56424;DHT22;42329;43.516;3.684;2022-07-29T06:07:42;21.70;83.00
56424;DHT22;42329;43.516;3.684;2022-07-29T06:10:10;21.80;82.60
56424;DHT22;42329;43.516;3.684;2022-07-29T06:12:38;21.70;84.00
56424;DHT22;42329;43.516;3.684;2022-07-29T06:15:06;21.70;82.90
56424;DHT22;42329;43.516;3.684;2022-07-29T06:17:33;21.80;83.40
56424;DHT22;42329;43.516;3.684;2022-07-29T06:20:01;21.80;83.10
56424;DHT22;42329;43.516;3.684;2022-07-29T06:22:28;21.80;84.00
56424;DHT22;42329;43.516;3.684;2022-07-29T06:24:56;21.80;85.10
56424;DHT22;42329;43.516;3.684;2022-07-29T06:27:24;21.80;84.50
56424;DHT22;42329;43.516;3.684;2022-07-29T06:29:52;21.90;85.40
56424;DHT22;42329;43.516;3.684;2022-07-29T06:32:19;21.90;84.40
56424;DHT22;42329;43.516;3.684;2022-07-29T06:34:47;21.90;83.20
56424;DHT22;42329;43.516;3.684;2022-07-29T06:37:14;21.90;84.30
56424;DHT22;42329;43.516;3.684;2022-07-29T06:39:43;21.80;84.20
56424;DHT22;42329;43.516;3.684;2022-07-29T06:42:10;21.90;83.90
56424;DHT22;42329;43.516;3.684;2022-07-29T06:44:39;21.90;84.90
56424;DHT22;42329;43.516;3.684;2022-07-29T06:47:07;21.90;86.70
56424;DHT22;42329;43.516;3.684;2022-07-29T06:49:35;21.80;89.60
56424;DHT22;42329;43.516;3.684;2022-07-29T06:52:04;21.70;90.20
56424;DHT22;42329;43.516;3.684;2022-07-29T06:54:31;21.70;90.10
56424;DHT22;42329;43.516;3.684;2022-07-29T06:56:58;21.60;90.40
56424;DHT22;42329;43.516;3.684;2022-07-29T06:59:26;21.60;90.40
56424;DHT22;42329;43.516;3.684;2022-07-29T07:01:54;21.60;90.80
56424;DHT22;42329;43.516;3.684;2022-07-29T07:04:22;21.70;90.90
56424;DHT22;42329;43.516;3.684;2022-07-29T07:06:49;21.80;91.30
56424;DHT22;42329;43.516;3.684;2022-07-29T07:09:16;21.70;92.10
56424;DHT22;42329;43.516;3.684;2022-07-29T07:11:43;21.80;92.10
56424;DHT22;42329;43.516;3.684;2022-07-29T07:14:11;21.80;91.90
56424;DHT22;42329;43.516;3.684;2022-07-29T07:16:38;21.80;92.00
56424;DHT22;42329;43.516;3.684;2022-07-29T07:19:07;21.90;92.30
56424;DHT22;42329;43.516;3.684;2022-07-29T07:21:35;21.90;92.60
56424;DHT22;42329;43.516;3.684;2022-07-29T07:24:03;21.90;93.30
56424;DHT22;42329;43.516;3.684;2022-07-29T07:26:30;21.90;93.40
56424;DHT22;42329;43.516;3.684;2022-07-29T07:28:58;22.00;93.40
56424;DHT22;42329;43.516;3.684;2022-07-29T07:31:26;22.10;92.90
56424;DHT22;42329;43.516;3.684;2022-07-29T07:33:53;22.10;92.90
56424;DHT22;42329;43.516;3.684;2022-07-29T07:36:22;22.20;93.10
56424;DHT22;42329;43.516;3.684;2022-07-29T07:38:50;22.30;93.70
56424;DHT22;42329;43.516;3.684;2022-07-29T07:41:17;22.30;94.10
56424;DHT22;42329;43.516;3.684;2022-07-29T07:43:45;22.30;94.10
56424;DHT22;42329;43.516;3.684;2022-07-29T07:46:13;22.30;94.20
56424;DHT22;42329;43.516;3.684;2022-07-29T07:48:40;22.30;94.30
56424;DHT22;42329;43.516;3.684;2022-07-29T07:51:08;22.40;94.40
56424;DHT22;42329;43.516;3.684;2022-07-29T07:53:36;22.40;94.30
56424;DHT22;42329;43.516;3.684;2022-07-29T07:56:05;22.60;94.30
56424;DHT22;42329;43.516;3.684;2022-07-29T07:58:32;22.70;94.40
56424;DHT22;42329;43.516;3.684;2022-07-29T08:01:01;22.70;94.20
56424;DHT22;42329;43.516;3.684;2022-07-29T08:03:28;22.80;93.60
56424;DHT22;42329;43.516;3.684;2022-07-29T08:05:55;22.80;93.20
56424;DHT22;42329;43.516;3.684;2022-07-29T08:08:23;22.80;93.50
56424;DHT22;42329;43.516;3.684;2022-07-29T08:10:52;22.90;93.10
56424;DHT22;42329;43.516;3.684;2022-07-29T08:13:20;22.90;92.80
56424;DHT22;42329;43.516;3.684;2022-07-29T08:15:48;22.90;92.50
56424;DHT22;42329;43.516;3.684;2022-07-29T08:18:23;22.90;92.40
56424;DHT22;42329;43.516;3.684;2022-07-29T08:20:51;23.00;92.30
56424;DHT22;42329;43.516;3.684;2022-07-29T08:23:18;23.00;92.20
56424;DHT22;42329;43.516;3.684;2022-07-29T08:25:46;23.00;92.20
56424;DHT22;42329;43.516;3.684;2022-07-29T08:28:15;23.10;92.90
56424;DHT22;42329;43.516;3.684;2022-07-29T08:30:42;23.10;92.30
56424;DHT22;42329;43.516;3.684;2022-07-29T08:33:09;23.20;91.90
56424;DHT22;42329;43.516;3.684;2022-07-29T08:35:38;23.20;92.00
56424;DHT22;42329;43.516;3.684;2022-07-29T08:38:06;23.30;91.70
56424;DHT22;42329;43.516;3.684;2022-07-29T08:40:34;23.30;92.10
56424;DHT22;42329;43.516;3.684;2022-07-29T08:43:05;23.30;92.00
56424;DHT22;42329;43.516;3.684;2022-07-29T08:45:42;23.30;92.50
56424;DHT22;42329;43.516;3.684;2022-07-29T08:48:11;23.30;92.90
56424;DHT22;42329;43.516;3.684;2022-07-29T08:50:39;23.40;93.60
56424;DHT22;42329;43.516;3.684;2022-07-29T08:53:11;23.40;93.40
56424;DHT22;42329;43.516;3.684;2022-07-29T08:55:39;23.40;92.80
56424;DHT22;42329;43.516;3.684;2022-07-29T08:58:07;23.40;92.80
56424;DHT22;42329;43.516;3.684;2022-07-29T09:00:40;23.50;92.80
56424;DHT22;42329;43.516;3.684;2022-07-29T09:03:09;23.40;93.30
56424;DHT22;42329;43.516;3.684;2022-07-29T09:05:41;23.50;93.30
56424;DHT22;42329;43.516;3.684;2022-07-29T09:08:09;23.50;93.30
56424;DHT22;42329;43.516;3.684;2022-07-29T09:10:36;23.50;94.00
56424;DHT22;42329;43.516;3.684;2022-07-29T09:13:04;23.50;93.80
56424;DHT22;42329;43.516;3.684;2022-07-29T09:15:32;23.50;94.10
56424;DHT22;42329;43.516;3.684;2022-07-29T09:18:01;23.40;94.70
56424;DHT22;42329;43.516;3.684;2022-07-29T09:20:28;23.40;94.10
56424;DHT22;42329;43.516;3.684;2022-07-29T09:23:16;23.50;94.70
56424;DHT22;42329;43.516;3.684;2022-07-29T09:25:43;23.50;95.10
56424;DHT22;42329;43.516;3.684;2022-07-29T09:28:12;23.50;95.60
56424;DHT22;42329;43.516;3.684;2022-07-29T09:30:50;23.50;95.70
56424;DHT22;42329;43.516;3.684;2022-07-29T09:33:21;23.40;96.10
56424;DHT22;42329;43.516;3.684;2022-07-29T09:35:59;23.40;96.00
56424;DHT22;42329;43.516;3.684;2022-07-29T09:38:27;23.40;97.30
56424;DHT22;42329;43.516;3.684;2022-07-29T09:40:59;23.20;97.40
56424;DHT22;42329;43.516;3.684;2022-07-29T09:43:26;23.20;97.80
56424;DHT22;42329;43.516;3.684;2022-07-29T09:45:53;23.20;98.40
56424;DHT22;42329;43.516;3.684;2022-07-29T09:48:24;23.20;98.10
56424;DHT22;42329;43.516;3.684;2022-07-29T09:50:51;23.20;98.50
56424;DHT22;42329;43.516;3.684;2022-07-29T09:53:40;23.20;98.70
56424;DHT22;42329;43.516;3.684;2022-07-29T09:56:07;23.20;98.50
56424;DHT22;42329;43.516;3.684;2022-07-29T09:58:36;23.20;99.10
56424;DHT22;42329;43.516;3.684;2022-07-29T10:01:04;23.20;99.20
56424;DHT22;42329;43.516;3.684;2022-07-29T10:03:35;23.30;99.20
56424;DHT22;42329;43.516;3.684;2022-07-29T10:06:17;23.30;99.10
56424;DHT22;42329;43.516;3.684;2022-07-29T10:08:45;23.30;99.20
56424;DHT22;42329;43.516;3.684;2022-07-29T10:11:14;23.40;98.90
56424;DHT22;42329;43.516;3.684;2022-07-29T10:13:45;23.50;99.00
56424;DHT22;42329;43.516;3.684;2022-07-29T10:16:13;23.60;99.40
56424;DHT22;42329;43.516;3.684;2022-07-29T10:18:43;23.70;99.40
56424;DHT22;42329;43.516;3.684;2022-07-29T10:21:12;23.70;99.20
56424;DHT22;42329;43.516;3.684;2022-07-29T10:23:40;23.80;99.50
56424;DHT22;42329;43.516;3.684;2022-07-29T10:26:10;23.80;99.50
56424;DHT22;42329;43.516;3.684;2022-07-29T10:28:38;23.90;99.00
56424;DHT22;42329;43.516;3.684;2022-07-29T10:31:06;24.00;99.20
56424;DHT22;42329;43.516;3.684;2022-07-29T10:33:51;24.10;99.10
56424;DHT22;42329;43.516;3.684;2022-07-29T10:36:30;24.20;98.50
56424;DHT22;42329;43.516;3.684;2022-07-29T10:39:05;24.40;98.00
56424;DHT22;42329;43.516;3.684;2022-07-29T10:41:52;24.50;98.50
56424;DHT22;42329;43.516;3.684;2022-07-29T10:44:24;24.50;97.30
56424;DHT22;42329;43.516;3.684;2022-07-29T10:46:53;24.50;97.30
56424;DHT22;42329;43.516;3.684;2022-07-29T10:49:23;24.50;96.20
56424;DHT22;42329;43.516;3.684;2022-07-29T10:52:00;24.60;96.80
56424;DHT22;42329;43.516;3.684;2022-07-29T10:54:44;24.70;97.00
56424;DHT22;42329;43.516;3.684;2022-07-29T10:57:13;24.80;96.70
56424;DHT22;42329;43.516;3.684;2022-07-29T10:59:41;24.80;96.30
56424;DHT22;42329;43.516;3.684;2022-07-29T11:02:45;24.90;96.10
56424;DHT22;42329;43.516;3.684;2022-07-29T11:05:19;24.90;96.20
56424;DHT22;42329;43.516;3.684;2022-07-29T11:10:53;25.10;95.80
56424;DHT22;42329;43.516;3.684;2022-07-29T11:13:50;25.20;95.10
56424;DHT22;42329;43.516;3.684;2022-07-29T11:16:19;25.30;95.30
56424;DHT22;42329;43.516;3.684;2022-07-29T11:21:50;25.40;91.40
56424;DHT22;42329;43.516;3.684;2022-07-29T11:24:20;25.40;91.40
56424;DHT22;42329;43.516;3.684;2022-07-29T11:27:14;25.40;91.10
56424;DHT22;42329;43.516;3.684;2022-07-29T11:29:51;25.50;91.50
56424;DHT22;42329;43.516;3.684;2022-07-29T11:32:19;25.60;91.10
56424;DHT22;42329;43.516;3.684;2022-07-29T11:34:47;25.60;90.40
56424;DHT22;42329;43.516;3.684;2022-07-29T11:37:24;25.60;90.10
56424;DHT22;42329;43.516;3.684;2022-07-29T11:40:16;25.70;90.00
56424;DHT22;42329;43.516;3.684;2022-07-29T11:42:45;25.70;89.00
56424;DHT22;42329;43.516;3.684;2022-07-29T11:45:18;25.80;89.10
56424;DHT22;42329;43.516;3.684;2022-07-29T11:47:51;26.00;90.10
56424;DHT22;42329;43.516;3.684;2022-07-29T11:50:31;26.00;87.60
56424;DHT22;42329;43.516;3.684;2022-07-29T11:53:01;26.10;87.70
56424;DHT22;42329;43.516;3.684;2022-07-29T11:55:29;26.20;85.10
56424;DHT22;42329;43.516;3.684;2022-07-29T11:57:59;26.20;85.80
56424;DHT22;42329;43.516;3.684;2022-07-29T12:00:29;26.30;86.50
56424;DHT22;42329;43.516;3.684;2022-07-29T12:02:58;26.30;84.70
56424;DHT22;42329;43.516;3.684;2022-07-29T12:05:37;26.40;84.70
56424;DHT22;42329;43.516;3.684;2022-07-29T12:08:08;26.40;84.30
56424;DHT22;42329;43.516;3.684;2022-07-29T12:10:37;26.40;84.30
56424;DHT22;42329;43.516;3.684;2022-07-29T12:13:05;26.50;85.60
56424;DHT22;42329;43.516;3.684;2022-07-29T12:15:32;26.60;85.50
56424;DHT22;42329;43.516;3.684;2022-07-29T12:18:10;26.60;84.00
56424;DHT22;42329;43.516;3.684;2022-07-29T12:20:38;26.60;83.70
56424;DHT22;42329;43.516;3.684;2022-07-29T12:23:08;26.60;82.60
56424;DHT22;42329;43.516;3.684;2022-07-29T12:25:38;26.60;82.40
56424;DHT22;42329;43.516;3.684;2022-07-29T12:28:07;26.70;83.60
56424;DHT22;42329;43.516;3.684;2022-07-29T12:30:37;26.80;84.10
56424;DHT22;42329;43.516;3.684;2022-07-29T12:33:13;26.80;83.20
56424;DHT22;42329;43.516;3.684;2022-07-29T12:35:42;26.90;83.00
56424;DHT22;42329;43.516;3.684;2022-07-29T12:38:12;27.00;84.10
56424;DHT22;42329;43.516;3.684;2022-07-29T12:40:40;27.00;82.90
56424;DHT22;42329;43.516;3.684;2022-07-29T12:43:12;27.10;82.70
56424;DHT22;42329;43.516;3.684;2022-07-29T12:45:41;27.10;81.60
56424;DHT22;42329;43.516;3.684;2022-07-29T12:48:09;27.10;81.50
56424;DHT22;42329;43.516;3.684;2022-07-29T12:50:51;27.10;79.60
56424;DHT22;42329;43.516;3.684;2022-07-29T12:53:20;27.10;80.10
56424;DHT22;42329;43.516;3.684;2022-07-29T12:55:50;27.20;80.50
56424;DHT22;42329;43.516;3.684;2022-07-29T12:58:33;27.20;79.20
56424;DHT22;42329;43.516;3.684;2022-07-29T13:01:03;27.20;78.70
56424;DHT22;42329;43.516;3.684;2022-07-29T13:03:51;27.20;79.90
56424;DHT22;42329;43.516;3.684;2022-07-29T13:06:33;27.30;78.90
56424;DHT22;42329;43.516;3.684;2022-07-29T13:09:09;27.30;78.90
56424;DHT22;42329;43.516;3.684;2022-07-29T13:11:38;27.40;79.50
56424;DHT22;42329;43.516;3.684;2022-07-29T13:14:08;27.40;78.70
56424;DHT22;42329;43.516;3.684;2022-07-29T13:16:36;27.40;78.20
56424;DHT22;42329;43.516;3.684;2022-07-29T13:19:09;27.40;78.50
56424;DHT22;42329;43.516;3.684;2022-07-29T13:21:38;27.40;79.10
56424;DHT22;42329;43.516;3.684;2022-07-29T13:24:07;27.40;79.00
56424;DHT22;42329;43.516;3.684;2022-07-29T13:26:39;27.40;79.00
56424;DHT22;42329;43.516;3.684;2022-07-29T13:29:06;27.40;79.00
56424;DHT22;42329;43.516;3.684;2022-07-29T13:31:34;27.50;78.20
56424;DHT22;42329;43.516;3.684;2022-07-29T13:34:02;27.60;78.50
56424;DHT22;42329;43.516;3.684;2022-07-29T13:36:29;27.70;78.30
56424;DHT22;42329;43.516;3.684;2022-07-29T13:38:57;27.80;78.20
56424;DHT22;42329;43.516;3.684;2022-07-29T13:41:26;27.90;78.40
56424;DHT22;42329;43.516;3.684;2022-07-29T13:43:53;27.90;77.90
56424;DHT22;42329;43.516;3.684;2022-07-29T13:46:21;28.00;77.80
56424;DHT22;42329;43.516;3.684;2022-07-29T13:48:48;28.00;77.10
56424;DHT22;42329;43.516;3.684;2022-07-29T13:51:16;28.10;77.70
56424;DHT22;42329;43.516;3.684;2022-07-29T13:53:43;28.20;77.70
56424;DHT22;42329;43.516;3.684;2022-07-29T13:56:11;28.30;76.70
56424;DHT22;42329;43.516;3.684;2022-07-29T13:58:40;28.30;76.70
56424;DHT22;42329;43.516;3.684;2022-07-29T14:01:07;28.40;76.40
56424;DHT22;42329;43.516;3.684;2022-07-29T14:03:36;28.40;75.90
56424;DHT22;42329;43.516;3.684;2022-07-29T14:06:06;28.40;76.10
56424;DHT22;42329;43.516;3.684;2022-07-29T14:08:34;28.40;75.80
56424;DHT22;42329;43.516;3.684;2022-07-29T14:11:02;28.40;76.20
56424;DHT22;42329;43.516;3.684;2022-07-29T14:13:29;28.40;75.20
56424;DHT22;42329;43.516;3.684;2022-07-29T14:15:59;28.40;75.10
56424;DHT22;42329;43.516;3.684;2022-07-29T14:18:26;28.40;75.10
56424;DHT22;42329;43.516;3.684;2022-07-29T14:20:54;28.40;74.20
56424;DHT22;42329;43.516;3.684;2022-07-29T14:23:21;28.40;74.50
56424;DHT22;42329;43.516;3.684;2022-07-29T14:25:49;28.40;75.10
56424;DHT22;42329;43.516;3.684;2022-07-29T14:28:17;28.40;75.10
56424;DHT22;42329;43.516;3.684;2022-07-29T14:30:45;28.40;75.30
56424;DHT22;42329;43.516;3.684;2022-07-29T14:33:14;28.40;76.10
56424;DHT22;42329;43.516;3.684;2022-07-29T14:35:42;28.50;76.10
56424;DHT22;42329;43.516;3.684;2022-07-29T14:38:09;28.50;76.10
56424;DHT22;42329;43.516;3.684;2022-07-29T14:40:36;28.50;76.30
56424;DHT22;42329;43.516;3.684;2022-07-29T14:43:04;28.50;76.60
56424;DHT22;42329;43.516;3.684;2022-07-29T14:45:31;28.50;76.90
56424;DHT22;42329;43.516;3.684;2022-07-29T14:47:59;28.50;76.80
56424;DHT22;42329;43.516;3.684;2022-07-29T14:50:28;28.50;76.40
56424;DHT22;42329;43.516;3.684;2022-07-29T14:52:55;28.50;76.00
56424;DHT22;42329;43.516;3.684;2022-07-29T14:55:23;28.40;75.20
56424;DHT22;42329;43.516;3.684;2022-07-29T14:57:50;28.40;74.20
56424;DHT22;42329;43.516;3.684;2022-07-29T15:00:19;28.40;74.50
56424;DHT22;42329;43.516;3.684;2022-07-29T15:02:47;28.40;73.90
56424;DHT22;42329;43.516;3.684;2022-07-29T15:05:14;28.30;73.20
56424;DHT22;42329;43.516;3.684;2022-07-29T15:07:43;28.30;74.20
56424;DHT22;42329;43.516;3.684;2022-07-29T15:10:11;28.30;74.70
56424;DHT22;42329;43.516;3.684;2022-07-29T15:12:38;28.40;74.60
56424;DHT22;42329;43.516;3.684;2022-07-29T15:15:06;28.30;73.40
56424;DHT22;42329;43.516;3.684;2022-07-29T15:17:34;28.30;73.60
56424;DHT22;42329;43.516;3.684;2022-07-29T15:20:02;28.30;73.40
56424;DHT22;42329;43.516;3.684;2022-07-29T15:22:30;28.20;73.10
56424;DHT22;42329;43.516;3.684;2022-07-29T15:24:58;28.10;72.20
56424;DHT22;42329;43.516;3.684;2022-07-29T15:27:26;28.00;72.40
56424;DHT22;42329;43.516;3.684;2022-07-29T15:29:53;28.00;72.80
56424;DHT22;42329;43.516;3.684;2022-07-29T15:32:20;28.00;72.60
56424;DHT22;42329;43.516;3.684;2022-07-29T15:34:48;28.00;73.00
56424;DHT22;42329;43.516;3.684;2022-07-29T15:37:15;28.00;72.50
56424;DHT22;42329;43.516;3.684;2022-07-29T15:39:43;28.00;72.80
56424;DHT22;42329;43.516;3.684;2022-07-29T15:42:12;28.00;72.90
56424;DHT22;42329;43.516;3.684;2022-07-29T15:44:39;28.00;72.60
56424;DHT22;42329;43.516;3.684;2022-07-29T15:47:07;28.00;71.90
56424;DHT22;42329;43.516;3.684;2022-07-29T15:49:37;28.00;71.30
56424;DHT22;42329;43.516;3.684;2022-07-29T15:52:06;28.00;71.40
56424;DHT22;42329;43.516;3.684;2022-07-29T15:54:35;28.10;70.90